sensor_id;sensor_type;location;lat;lon;timestamp;pressure;altitude;pressure_sealevel;temperature;humidity
59337;BME280;45115;52.002;4.686;2023-03-26T00:01:20;100805.69;;;8.57;90.54
59337;BME280;45115;52.002;4.686;2023-03-26T00:03:48;100799.25;;;8.58;90.59
59337;BME280;45115;52.002;4.686;2023-03-26T00:06:20;100794.31;;;8.52;90.73
59337;BME280;45115;52.002;4.686;2023-03-26T00:08:49;100784.94;;;8.45;91.87
59337;BME280;45115;52.002;4.686;2023-03-26T00:11:17;100792.75;;;8.50;91.80
59337;BME280;45115;52.002;4.686;2023-03-26T00:13:44;100794.59;;;8.49;92.23
59337;BME280;45115;52.002;4.686;2023-03-26T00:16:13;100794.44;;;8.51;92.45
59337;BME280;45115;52.002;4.686;2023-03-26T00:18:41;100786.34;;;8.60;92.73
59337;BME280;45115;52.002;4.686;2023-03-26T00:21:11;100775.75;;;8.67;92.20
59337;BME280;45115;52.002;4.686;2023-03-26T00:23:37;100782.59;;;8.61;92.06
59337;BME280;45115;52.002;4.686;2023-03-26T00:26:06;100774.28;;;8.63;92.44
59337;BME280;45115;52.002;4.686;2023-03-26T00:28:35;100764.81;;;8.67;92.34
59337;BME280;45115;52.002;4.686;2023-03-26T00:31:05;100766.81;;;8.65;92.78
59337;BME280;45115;52.002;4.686;2023-03-26T00:33:32;100760.44;;;8.55;92.43
59337;BME280;45115;52.002;4.686;2023-03-26T00:36:04;100755.25;;;8.52;93.04
59337;BME280;45115;52.002;4.686;2023-03-26T00:38:31;100751.19;;;8.46;93.24
59337;BME280;45115;52.002;4.686;2023-03-26T00:41:06;100751.44;;;8.43;93.81
59337;BME280;45115;52.002;4.686;2023-03-26T00:43:42;100757.03;;;8.42;93.53
59337;BME280;45115;52.002;4.686;2023-03-26T00:46:09;100747.41;;;8.38;93.49
59337;BME280;45115;52.002;4.686;2023-03-26T00:48:36;100745.13;;;8.43;93.89
59337;BME280;45115;52.002;4.686;2023-03-26T00:51:04;100739.81;;;8.41;93.65
59337;BME280;45115;52.002;4.686;2023-03-26T00:53:33;100734.22;;;8.43;93.72
59337;BME280;45115;52.002;4.686;2023-03-26T00:56:03;100736.06;;;8.42;93.81
59337;BME280;45115;52.002;4.686;2023-03-26T00:58:31;100725.50;;;8.28;93.69
59337;BME280;45115;52.002;4.686;2023-03-26T01:01:00;100731.09;;;8.27;93.93
59337;BME280;45115;52.002;4.686;2023-03-26T01:03:29;100719.69;;;8.22;94.18
59337;BME280;45115;52.002;4.686;2023-03-26T01:05:59;100715.63;;;8.16;94.43
59337;BME280;45115;52.002;4.686;2023-03-26T01:08:31;100709.56;;;8.13;94.45
59337;BME280;45115;52.002;4.686;2023-03-26T01:11:00;100714.75;;;8.16;94.32
59337;BME280;45115;52.002;4.686;2023-03-26T01:13:35;100711.88;;;8.17;94.74
59337;BME280;45115;52.002;4.686;2023-03-26T01:16:05;100706.66;;;8.25;94.51
59337;BME280;45115;52.002;4.686;2023-03-26T01:18:37;100709.53;;;8.24;94.66
59337;BME280;45115;52.002;4.686;2023-03-26T01:21:06;100714.84;;;8.25;94.29
59337;BME280;45115;52.002;4.686;2023-03-26T01:23:39;100708.09;;;8.29;94.48
59337;BME280;45115;52.002;4.686;2023-03-26T01:26:15;100701.34;;;8.24;94.20
59337;BME280;45115;52.002;4.686;2023-03-26T01:28:45;100699.09;;;8.29;94.38
59337;BME280;45115;52.002;4.686;2023-03-26T01:31:20;100694.19;;;8.12;93.51
59337;BME280;45115;52.002;4.686;2023-03-26T01:33:55;100689.41;;;8.04;94.13
59337;BME280;45115;52.002;4.686;2023-03-26T01:36:30;100682.06;;;7.84;93.83
59337;BME280;45115;52.002;4.686;2023-03-26T01:39:01;100675.75;;;7.83;94.80
59337;BME280;45115;52.002;4.686;2023-03-26T01:41:39;100662.50;;;7.79;94.88
59337;BME280;45115;52.002;4.686;2023-03-26T01:44:15;100663.28;;;7.70;94.55
59337;BME280;45115;52.002;4.686;2023-03-26T01:46:46;100659.59;;;7.71;95.63
59337;BME280;45115;52.002;4.686;2023-03-26T01:49:16;100652.59;;;7.57;95.26
59337;BME280;45115;52.002;4.686;2023-03-26T01:51:43;100652.31;;;7.60;95.69
59337;BME280;45115;52.002;4.686;2023-03-26T01:54:13;100656.63;;;7.63;95.83
59337;BME280;45115;52.002;4.686;2023-03-26T01:56:49;100652.31;;;7.60;95.87
59337;BME280;45115;52.002;4.686;2023-03-26T01:59:34;100649.59;;;7.60;96.20
59337;BME280;45115;52.002;4.686;2023-03-26T02:02:09;100645.66;;;7.53;96.02
59337;BME280;45115;52.002;4.686;2023-03-26T02:04:41;100650.06;;;7.65;96.35
59337;BME280;45115;52.002;4.686;2023-03-26T02:07:14;100648.00;;;7.78;96.26
59337;BME280;45115;52.002;4.686;2023-03-26T02:09:48;100639.72;;;7.80;96.01
59337;BME280;45115;52.002;4.686;2023-03-26T02:12:18;100642.34;;;7.70;96.03
59337;BME280;45115;52.002;4.686;2023-03-26T02:14:47;100645.28;;;7.78;96.62
59337;BME280;45115;52.002;4.686;2023-03-26T02:17:14;100644.09;;;7.92;96.78
59337;BME280;45115;52.002;4.686;2023-03-26T02:19:43;100626.53;;;8.06;96.26
59337;BME280;45115;52.002;4.686;2023-03-26T02:22:12;100631.97;;;8.06;95.12
59337;BME280;45115;52.002;4.686;2023-03-26T02:24:43;100626.34;;;7.98;95.86
59337;BME280;45115;52.002;4.686;2023-03-26T02:27:10;100628.19;;;7.97;95.96
59337;BME280;45115;52.002;4.686;2023-03-26T02:29:40;100624.06;;;8.03;95.77
59337;BME280;45115;52.002;4.686;2023-03-26T02:32:09;100614.28;;;8.00;95.83
59337;BME280;45115;52.002;4.686;2023-03-26T02:34:37;100614.34;;;7.89;95.91
59337;BME280;45115;52.002;4.686;2023-03-26T02:37:04;100618.97;;;7.88;95.72
59337;BME280;45115;52.002;4.686;2023-03-26T02:39:31;100613.09;;;7.93;95.62
59337;BME280;45115;52.002;4.686;2023-03-26T02:42:03;100605.31;;;7.88;95.83
59337;BME280;45115;52.002;4.686;2023-03-26T02:44:36;100607.91;;;7.90;95.54
59337;BME280;45115;52.002;4.686;2023-03-26T02:47:26;100610.22;;;7.94;95.86
59337;BME280;45115;52.002;4.686;2023-03-26T02:49:53;100601.78;;;7.98;96.03
59337;BME280;45115;52.002;4.686;2023-03-26T02:52:58;100598.56;;;7.92;95.41
59337;BME280;45115;52.002;4.686;2023-03-26T02:55:30;100595.84;;;7.92;95.48
59337;BME280;45115;52.002;4.686;2023-03-26T02:58:00;100598.78;;;8.01;96.21
59337;BME280;45115;52.002;4.686;2023-03-26T03:00:37;100601.25;;;8.04;95.53
59337;BME280;45115;52.002;4.686;2023-03-26T03:03:27;100606.16;;;8.10;96.19
59337;BME280;45115;52.002;4.686;2023-03-26T03:06:00;100597.84;;;8.11;95.43
59337;BME280;45115;52.002;4.686;2023-03-26T03:08:37;100594.84;;;8.14;95.62
59337;BME280;45115;52.002;4.686;2023-03-26T03:11:08;100589.47;;;8.24;95.37
59337;BME280;45115;52.002;4.686;2023-03-26T03:13:39;100587.09;;;8.19;95.04
59337;BME280;45115;52.002;4.686;2023-03-26T03:16:07;100588.31;;;8.26;94.39
59337;BME280;45115;52.002;4.686;2023-03-26T03:18:36;100585.13;;;8.21;94.74
59337;BME280;45115;52.002;4.686;2023-03-26T03:21:03;100572.19;;;8.23;95.32
59337;BME280;45115;52.002;4.686;2023-03-26T03:23:31;100575.41;;;8.28;94.91
59337;BME280;45115;52.002;4.686;2023-03-26T03:26:13;100565.75;;;8.24;95.18
59337;BME280;45115;52.002;4.686;2023-03-26T03:28:44;100571.63;;;8.20;95.35
59337;BME280;45115;52.002;4.686;2023-03-26T03:31:13;100569.16;;;8.17;95.48
59337;BME280;45115;52.002;4.686;2023-03-26T03:33:41;100565.38;;;8.29;95.43
59337;BME280;45115;52.002;4.686;2023-03-26T03:36:10;100563.63;;;8.28;95.89
59337;BME280;45115;52.002;4.686;2023-03-26T03:38:39;100562.31;;;8.22;96.03
59337;BME280;45115;52.002;4.686;2023-03-26T03:41:07;100564.91;;;8.24;95.80
59337;BME280;45115;52.002;4.686;2023-03-26T03:43:38;100557.44;;;8.26;95.77
59337;BME280;45115;52.002;4.686;2023-03-26T03:46:10;100561.19;;;8.25;95.71
59337;BME280;45115;52.002;4.686;2023-03-26T03:48:45;100556.13;;;8.20;96.04
59337;BME280;45115;52.002;4.686;2023-03-26T03:51:17;100555.72;;;8.25;95.33
59337;BME280;45115;52.002;4.686;2023-03-26T03:53:54;100548.66;;;8.22;95.80
59337;BME280;45115;52.002;4.686;2023-03-26T03:56:40;100543.47;;;8.19;95.52
59337;BME280;45115;52.002;4.686;2023-03-26T03:59:13;100533.09;;;8.13;95.39
59337;BME280;45115;52.002;4.686;2023-03-26T04:01:41;100536.81;;;8.12;95.38
59337;BME280;45115;52.002;4.686;2023-03-26T04:04:22;100531.47;;;8.01;95.34
59337;BME280;45115;52.002;4.686;2023-03-26T04:06:55;100531.06;;;8.06;95.42
59337;BME280;45115;52.002;4.686;2023-03-26T04:09:25;100522.81;;;7.96;95.77
59337;BME280;45115;52.002;4.686;2023-03-26T04:11:55;100524.28;;;8.00;95.54
59337;BME280;45115;52.002;4.686;2023-03-26T04:14:25;100514.69;;;8.06;95.17
59337;BME280;45115;52.002;4.686;2023-03-26T04:17:00;100521.47;;;8.11;95.48
59337;BME280;45115;52.002;4.686;2023-03-26T04:19:33;100510.69;;;8.10;95.48
59337;BME280;45115;52.002;4.686;2023-03-26T04:22:00;100498.03;;;8.09;95.18
59337;BME280;45115;52.002;4.686;2023-03-26T04:24:31;100505.81;;;8.13;94.99
59337;BME280;45115;52.002;4.686;2023-03-26T04:27:42;100493.63;;;8.17;94.67
59337;BME280;45115;52.002;4.686;2023-03-26T04:30:37;100485.41;;;8.08;94.21
59337;BME280;45115;52.002;4.686;2023-03-26T04:33:46;100484.69;;;8.06;94.31
59337;BME280;45115;52.002;4.686;2023-03-26T04:36:17;100480.84;;;8.08;93.95
59337;BME280;45115;52.002;4.686;2023-03-26T04:38:49;100481.50;;;8.01;93.89
59337;BME280;45115;52.002;4.686;2023-03-26T04:41:19;100476.44;;;7.96;94.18
59337;BME280;45115;52.002;4.686;2023-03-26T04:43:58;100475.88;;;7.92;94.26
59337;BME280;45115;52.002;4.686;2023-03-26T04:46:28;100469.97;;;7.87;94.70
59337;BME280;45115;52.002;4.686;2023-03-26T04:49:13;100467.97;;;7.89;94.77
59337;BME280;45115;52.002;4.686;2023-03-26T04:51:41;100467.09;;;7.89;94.94
59337;BME280;45115;52.002;4.686;2023-03-26T04:54:30;100459.97;;;7.98;95.17
59337;BME280;45115;52.002;4.686;2023-03-26T04:57:02;100454.97;;;8.03;94.28
59337;BME280;45115;52.002;4.686;2023-03-26T04:59:42;100459.41;;;8.04;94.47
59337;BME280;45115;52.002;4.686;2023-03-26T05:02:11;100450.25;;;8.05;94.38
59337;BME280;45115;52.002;4.686;2023-03-26T05:04:56;100439.72;;;8.00;94.37
59337;BME280;45115;52.002;4.686;2023-03-26T05:07:28;100437.00;;;8.00;94.59
59337;BME280;45115;52.002;4.686;2023-03-26T05:09:57;100435.88;;;8.03;93.95
59337;BME280;45115;52.002;4.686;2023-03-26T05:12:39;100428.53;;;8.03;94.34
59337;BME280;45115;52.002;4.686;2023-03-26T05:15:15;100428.53;;;8.03;94.62
59337;BME280;45115;52.002;4.686;2023-03-26T05:17:56;100414.91;;;8.03;94.45
59337;BME280;45115;52.002;4.686;2023-03-26T05:20:45;100409.72;;;8.00;94.27
59337;BME280;45115;52.002;4.686;2023-03-26T05:23:13;100411.47;;;8.01;94.25
59337;BME280;45115;52.002;4.686;2023-03-26T05:25:43;100408.28;;;7.96;94.75
59337;BME280;45115;52.002;4.686;2023-03-26T05:28:15;100403.97;;;7.93;95.42
59337;BME280;45115;52.002;4.686;2023-03-26T05:30:51;100399.94;;;7.88;95.61
59337;BME280;45115;52.002;4.686;2023-03-26T05:33:19;100398.66;;;7.92;95.28
59337;BME280;45115;52.002;4.686;2023-03-26T05:35:59;100393.91;;;7.84;95.68
59337;BME280;45115;52.002;4.686;2023-03-26T05:38:30;100397.75;;;7.82;95.78
59337;BME280;45115;52.002;4.686;2023-03-26T05:40:58;100391.16;;;7.84;95.64
59337;BME280;45115;52.002;4.686;2023-03-26T05:43:26;100389.47;;;7.83;95.37
59337;BME280;45115;52.002;4.686;2023-03-26T05:46:08;100385.28;;;7.79;95.49
59337;BME280;45115;52.002;4.686;2023-03-26T05:48:35;100383.22;;;7.72;95.79
59337;BME280;45115;52.002;4.686;2023-03-26T05:51:03;100379.78;;;7.70;95.87
59337;BME280;45115;52.002;4.686;2023-03-26T05:53:33;100377.78;;;7.72;95.86
59337;BME280;45115;52.002;4.686;2023-03-26T05:56:18;100378.22;;;7.67;96.60
59337;BME280;45115;52.002;4.686;2023-03-26T05:58:57;100376.34;;;7.68;96.28
59337;BME280;45115;52.002;4.686;2023-03-26T06:01:42;100374.06;;;7.73;96.48
59337;BME280;45115;52.002;4.686;2023-03-26T06:04:27;100364.59;;;7.67;96.66
59337;BME280;45115;52.002;4.686;2023-03-26T06:07:16;100368.03;;;7.69;96.52
59337;BME280;45115;52.002;4.686;2023-03-26T06:09:53;100368.19;;;7.68;96.60
59337;BME280;45115;52.002;4.686;2023-03-26T06:12:20;100366.03;;;7.71;96.86
59337;BME280;45115;52.002;4.686;2023-03-26T06:14:47;100369.59;;;7.72;96.41
59337;BME280;45115;52.002;4.686;2023-03-26T06:17:36;100373.78;;;7.76;96.26
59337;BME280;45115;52.002;4.686;2023-03-26T06:20:16;100361.72;;;7.69;96.66
59337;BME280;45115;52.002;4.686;2023-03-26T06:22:46;100364.28;;;7.70;96.62
59337;BME280;45115;52.002;4.686;2023-03-26T06:25:18;100355.38;;;7.68;96.29
59337;BME280;45115;52.002;4.686;2023-03-26T06:28:05;100352.66;;;7.68;96.74
59337;BME280;45115;52.002;4.686;2023-03-26T06:30:38;100356.41;;;7.67;96.50
59337;BME280;45115;52.002;4.686;2023-03-26T06:33:13;100355.25;;;7.70;96.60
59337;BME280;45115;52.002;4.686;2023-03-26T06:35:45;100350.53;;;7.72;96.54
59337;BME280;45115;52.002;4.686;2023-03-26T06:38:13;100354.84;;;7.74;96.50
59337;BME280;45115;52.002;4.686;2023-03-26T06:40:41;100365.75;;;7.74;96.62
59337;BME280;45115;52.002;4.686;2023-03-26T06:43:37;100363.47;;;7.79;96.36
59337;BME280;45115;52.002;4.686;2023-03-26T06:46:15;100355.69;;;7.75;95.90
59337;BME280;45115;52.002;4.686;2023-03-26T06:49:04;100357.72;;;7.82;96.27
59337;BME280;45115;52.002;4.686;2023-03-26T06:52:01;100367.06;;;7.80;96.27
59337;BME280;45115;52.002;4.686;2023-03-26T06:54:57;100366.03;;;7.81;96.19
59337;BME280;45115;52.002;4.686;2023-03-26T06:57:48;100363.03;;;7.84;95.98
59337;BME280;45115;52.002;4.686;2023-03-26T07:00:18;100358.75;;;7.91;95.96
59337;BME280;45115;52.002;4.686;2023-03-26T07:03:05;100358.50;;;7.94;95.68
59337;BME280;45115;52.002;4.686;2023-03-26T07:05:51;100365.22;;;7.90;95.93
59337;BME280;45115;52.002;4.686;2023-03-26T07:08:36;100358.19;;;7.97;95.80
59337;BME280;45115;52.002;4.686;2023-03-26T07:11:41;100353.03;;;8.04;95.12
59337;BME280;45115;52.002;4.686;2023-03-26T07:14:28;100355.38;;;8.08;95.54
59337;BME280;45115;52.002;4.686;2023-03-26T07:17:20;100349.75;;;8.10;95.56
59337;BME280;45115;52.002;4.686;2023-03-26T07:19:59;100352.06;;;8.14;95.14
59337;BME280;45115;52.002;4.686;2023-03-26T07:22:26;100345.44;;;8.07;95.36
59337;BME280;45115;52.002;4.686;2023-03-26T07:25:06;100349.19;;;8.16;95.34
59337;BME280;45115;52.002;4.686;2023-03-26T07:27:52;100348.91;;;8.19;94.91
59337;BME280;45115;52.002;4.686;2023-03-26T07:30:54;100350.19;;;8.15;94.98
59337;BME280;45115;52.002;4.686;2023-03-26T07:33:44;100350.34;;;8.13;95.23
59337;BME280;45115;52.002;4.686;2023-03-26T07:36:52;100341.28;;;8.13;95.58
59337;BME280;45115;52.002;4.686;2023-03-26T07:39:56;100343.44;;;8.09;95.51
59337;BME280;45115;52.002;4.686;2023-03-26T07:42:49;100343.47;;;8.19;94.90
59337;BME280;45115;52.002;4.686;2023-03-26T07:45:44;100341.88;;;8.16;95.55
59337;BME280;45115;52.002;4.686;2023-03-26T07:48:33;100344.59;;;8.16;95.25
59337;BME280;45115;52.002;4.686;2023-03-26T07:51:30;100345.16;;;8.20;95.27
59337;BME280;45115;52.002;4.686;2023-03-26T07:54:16;100336.41;;;8.16;95.46
59337;BME280;45115;52.002;4.686;2023-03-26T07:57:07;100341.72;;;8.18;95.31
59337;BME280;45115;52.002;4.686;2023-03-26T07:59:56;100345.16;;;8.20;95.97
59337;BME280;45115;52.002;4.686;2023-03-26T08:02:52;100336.56;;;8.24;95.66
59337;BME280;45115;52.002;4.686;2023-03-26T08:05:53;100327.41;;;8.25;95.67
59337;BME280;45115;52.002;4.686;2023-03-26T08:08:37;100336.56;;;8.24;95.85
59337;BME280;45115;52.002;4.686;2023-03-26T08:11:47;100335.44;;;8.27;96.05
59337;BME280;45115;52.002;4.686;2023-03-26T08:14:26;100339.63;;;8.31;96.38
59337;BME280;45115;52.002;4.686;2023-03-26T08:17:03;100326.66;;;8.33;95.89
59337;BME280;45115;52.002;4.686;2023-03-26T08:19:42;100324.50;;;8.36;96.05
59337;BME280;45115;52.002;4.686;2023-03-26T08:22:16;100328.97;;;8.37;96.38
59337;BME280;45115;52.002;4.686;2023-03-26T08:24:53;100337.72;;;8.50;95.58
59337;BME280;45115;52.002;4.686;2023-03-26T08:27:34;100332.00;;;8.53;95.60
59337;BME280;45115;52.002;4.686;2023-03-26T08:30:08;100335.31;;;8.57;95.49
59337;BME280;45115;52.002;4.686;2023-03-26T08:32:36;100328.53;;;8.61;95.53
59337;BME280;45115;52.002;4.686;2023-03-26T08:35:04;100334.13;;;8.59;95.85
59337;BME280;45115;52.002;4.686;2023-03-26T08:37:32;100325.38;;;8.56;96.09
59337;BME280;45115;52.002;4.686;2023-03-26T08:39:59;100335.00;;;8.50;95.63
59337;BME280;45115;52.002;4.686;2023-03-26T08:42:40;100329.13;;;8.55;95.88
59337;BME280;45115;52.002;4.686;2023-03-26T08:45:46;100324.94;;;8.51;95.66
59337;BME280;45115;52.002;4.686;2023-03-26T08:52:29;100328.25;;;8.64;95.18
59337;BME280;45115;52.002;4.686;2023-03-26T08:58:36;100332.41;;;8.77;95.48
59337;BME280;45115;52.002;4.686;2023-03-26T09:01:10;100322.06;;;8.81;95.16
59337;BME280;45115;52.002;4.686;2023-03-26T09:06:59;100328.75;;;8.96;95.46
59337;BME280;45115;52.002;4.686;2023-03-26T09:15:48;100334.94;;;8.98;94.68
59337;BME280;45115;52.002;4.686;2023-03-26T09:18:31;100336.94;;;9.06;94.29
59337;BME280;45115;52.002;4.686;2023-03-26T09:21:41;100330.66;;;8.95;93.73
59337;BME280;45115;52.002;4.686;2023-03-26T09:24:24;100338.13;;;8.84;93.90
59337;BME280;45115;52.002;4.686;2023-03-26T09:27:04;100336.84;;;8.78;94.97
59337;BME280;45115;52.002;4.686;2023-03-26T09:30:01;100345.19;;;8.77;94.58
59337;BME280;45115;52.002;4.686;2023-03-26T09:35:52;100344.75;;;8.72;94.75
59337;BME280;45115;52.002;4.686;2023-03-26T09:38:32;100341.31;;;8.70;94.77
59337;BME280;45115;52.002;4.686;2023-03-26T09:41:07;100342.06;;;8.62;95.68
59337;BME280;45115;52.002;4.686;2023-03-26T09:46:38;100352.53;;;8.48;95.65
59337;BME280;45115;52.002;4.686;2023-03-26T09:49:28;100362.03;;;8.34;95.55
59337;BME280;45115;52.002;4.686;2023-03-26T09:52:25;100356.94;;;8.20;95.40
59337;BME280;45115;52.002;4.686;2023-03-26T09:55:08;100357.50;;;8.05;95.88
59337;BME280;45115;52.002;4.686;2023-03-26T09:58:06;100364.81;;;8.14;95.37
59337;BME280;45115;52.002;4.686;2023-03-26T10:00:40;100370.56;;;8.01;95.78
59337;BME280;45115;52.002;4.686;2023-03-26T10:03:19;100363.41;;;8.10;95.32
59337;BME280;45115;52.002;4.686;2023-03-26T10:05:58;100372.03;;;8.15;95.72
59337;BME280;45115;52.002;4.686;2023-03-26T10:08:38;100371.06;;;8.25;95.45
59337;BME280;45115;52.002;4.686;2023-03-26T10:11:16;100374.78;;;8.24;95.46
59337;BME280;45115;52.002;4.686;2023-03-26T10:14:03;100379.13;;;8.46;95.23
59337;BME280;45115;52.002;4.686;2023-03-26T10:16:44;100375.94;;;8.50;94.91
59337;BME280;45115;52.002;4.686;2023-03-26T10:19:27;100379.56;;;8.60;94.77
59337;BME280;45115;52.002;4.686;2023-03-26T10:22:01;100383.28;;;8.59;93.80
59337;BME280;45115;52.002;4.686;2023-03-26T10:24:44;100391.31;;;8.32;93.87
59337;BME280;45115;52.002;4.686;2023-03-26T10:27:25;100397.47;;;8.25;93.96
59337;BME280;45115;52.002;4.686;2023-03-26T10:30:22;100396.84;;;8.21;94.14
59337;BME280;45115;52.002;4.686;2023-03-26T10:32:58;100402.28;;;8.02;94.98
59337;BME280;45115;52.002;4.686;2023-03-26T10:35:38;100397.16;;;8.18;95.12
59337;BME280;45115;52.002;4.686;2023-03-26T10:38:17;100412.75;;;8.07;94.50
59337;BME280;45115;52.002;4.686;2023-03-26T10:40:56;100407.72;;;8.02;94.63
59337;BME280;45115;52.002;4.686;2023-03-26T10:43:56;100407.72;;;8.02;95.25
59337;BME280;45115;52.002;4.686;2023-03-26T10:47:05;100415.47;;;8.07;94.17
59337;BME280;45115;52.002;4.686;2023-03-26T10:49:57;100426.13;;;8.10;94.08
59337;BME280;45115;52.002;4.686;2023-03-26T10:52:29;100426.53;;;8.05;93.83
59337;BME280;45115;52.002;4.686;2023-03-26T10:55:09;100422.09;;;8.14;92.57
59337;BME280;45115;52.002;4.686;2023-03-26T10:57:44;100426.38;;;8.07;93.22
59337;BME280;45115;52.002;4.686;2023-03-26T11:00:15;100441.47;;;8.11;92.04
59337;BME280;45115;52.002;4.686;2023-03-26T11:03:02;100433.16;;;8.03;92.76
59337;BME280;45115;52.002;4.686;2023-03-26T11:05:57;100435.34;;;8.18;92.27
59337;BME280;45115;52.002;4.686;2023-03-26T11:08:29;100443.53;;;8.18;92.63
59337;BME280;45115;52.002;4.686;2023-03-26T11:11:04;100456.97;;;8.01;91.90
59337;BME280;45115;52.002;4.686;2023-03-26T11:13:47;100446.00;;;7.91;91.52
59337;BME280;45115;52.002;4.686;2023-03-26T11:16:24;100435.50;;;8.17;91.70
59337;BME280;45115;52.002;4.686;2023-03-26T11:18:56;100449.78;;;8.39;91.80
59337;BME280;45115;52.002;4.686;2023-03-26T11:21:32;100447.16;;;8.28;91.11
59337;BME280;45115;52.002;4.686;2023-03-26T11:24:11;100454.44;;;8.18;91.97
59337;BME280;45115;52.002;4.686;2023-03-26T11:26:54;100450.34;;;8.24;92.78
59337;BME280;45115;52.002;4.686;2023-03-26T11:29:44;100460.94;;;8.27;92.27
59337;BME280;45115;52.002;4.686;2023-03-26T11:32:16;100470.47;;;8.02;90.90
59337;BME280;45115;52.002;4.686;2023-03-26T11:34:53;100474.59;;;7.97;91.82
59337;BME280;45115;52.002;4.686;2023-03-26T11:37:31;100474.22;;;7.80;92.00
59337;BME280;45115;52.002;4.686;2023-03-26T11:40:02;100472.75;;;7.97;92.93
59337;BME280;45115;52.002;4.686;2023-03-26T11:42:32;100475.50;;;8.07;92.64
59337;BME280;45115;52.002;4.686;2023-03-26T11:45:02;100472.47;;;8.00;90.83
59337;BME280;45115;52.002;4.686;2023-03-26T11:47:35;100487.94;;;8.00;91.34
59337;BME280;45115;52.002;4.686;2023-03-26T11:50:08;100489.78;;;7.89;92.02
59337;BME280;45115;52.002;4.686;2023-03-26T11:52:39;100490.72;;;8.09;92.80
59337;BME280;45115;52.002;4.686;2023-03-26T11:55:10;100497.28;;;7.97;92.61
59337;BME280;45115;52.002;4.686;2023-03-26T11:57:38;100494.63;;;7.86;91.80
59337;BME280;45115;52.002;4.686;2023-03-26T12:00:11;100498.25;;;7.86;93.15
59337;BME280;45115;52.002;4.686;2023-03-26T12:02:43;100500.38;;;7.83;92.13
59337;BME280;45115;52.002;4.686;2023-03-26T12:05:14;100516.06;;;7.70;91.78
59337;BME280;45115;52.002;4.686;2023-03-26T12:07:51;100508.03;;;7.68;91.73
59337;BME280;45115;52.002;4.686;2023-03-26T12:10:25;100510.09;;;7.76;92.16
59337;BME280;45115;52.002;4.686;2023-03-26T12:12:55;100514.41;;;7.78;91.56
59337;BME280;45115;52.002;4.686;2023-03-26T12:15:23;100511.78;;;7.67;91.21
59337;BME280;45115;52.002;4.686;2023-03-26T12:17:52;100515.56;;;7.76;91.31
59337;BME280;45115;52.002;4.686;2023-03-26T12:20:30;100513.25;;;7.71;90.78
59337;BME280;45115;52.002;4.686;2023-03-26T12:22:58;100515.38;;;7.98;90.24
59337;BME280;45115;52.002;4.686;2023-03-26T12:25:30;100520.38;;;7.93;90.08
59337;BME280;45115;52.002;4.686;2023-03-26T12:27:58;100524.34;;;7.89;87.59
59337;BME280;45115;52.002;4.686;2023-03-26T12:30:30;100520.97;;;7.97;88.74
59337;BME280;45115;52.002;4.686;2023-03-26T12:32:59;100520.59;;;8.11;87.94
59337;BME280;45115;52.002;4.686;2023-03-26T12:35:29;100525.09;;;8.21;89.00
59337;BME280;45115;52.002;4.686;2023-03-26T12:38:14;100526.00;;;8.31;86.72
59337;BME280;45115;52.002;4.686;2023-03-26T12:40:43;100540.38;;;8.24;85.51
59337;BME280;45115;52.002;4.686;2023-03-26T12:43:22;100540.28;;;8.44;85.73
59337;BME280;45115;52.002;4.686;2023-03-26T12:45:55;100536.97;;;8.41;82.93
59337;BME280;45115;52.002;4.686;2023-03-26T12:48:23;100547.59;;;8.44;84.79
59337;BME280;45115;52.002;4.686;2023-03-26T12:51:02;100542.97;;;8.35;82.28
59337;BME280;45115;52.002;4.686;2023-03-26T12:53:41;100551.00;;;8.36;82.44
59337;BME280;45115;52.002;4.686;2023-03-26T12:56:18;100556.81;;;8.52;83.79
59337;BME280;45115;52.002;4.686;2023-03-26T12:59:19;100556.00;;;8.61;82.30
59337;BME280;45115;52.002;4.686;2023-03-26T13:02:02;100561.06;;;8.75;81.11
59337;BME280;45115;52.002;4.686;2023-03-26T13:04:54;100555.47;;;8.86;80.45
59337;BME280;45115;52.002;4.686;2023-03-26T13:07:39;100565.25;;;8.79;79.76
59337;BME280;45115;52.002;4.686;2023-03-26T13:10:35;100564.97;;;8.82;77.54
59337;BME280;45115;52.002;4.686;2023-03-26T13:13:20;100564.94;;;8.73;78.48
59337;BME280;45115;52.002;4.686;2023-03-26T13:15:59;100561.09;;;8.94;78.30
59337;BME280;45115;52.002;4.686;2023-03-26T13:18:41;100573.47;;;8.98;79.68
59337;BME280;45115;52.002;4.686;2023-03-26T13:21:11;100569.28;;;8.94;78.96
59337;BME280;45115;52.002;4.686;2023-03-26T13:23:47;100582.06;;;8.84;78.59
59337;BME280;45115;52.002;4.686;2023-03-26T13:26:32;100570.59;;;9.00;77.39
59337;BME280;45115;52.002;4.686;2023-03-26T13:29:07;100575.91;;;9.01;75.73
59337;BME280;45115;52.002;4.686;2023-03-26T13:31:40;100578.22;;;8.96;75.12
59337;BME280;45115;52.002;4.686;2023-03-26T13:34:17;100585.19;;;8.80;74.51
59337;BME280;45115;52.002;4.686;2023-03-26T13:36:55;100595.66;;;9.15;74.88
59337;BME280;45115;52.002;4.686;2023-03-26T13:39:27;100597.66;;;9.13;76.63
59337;BME280;45115;52.002;4.686;2023-03-26T13:42:15;100591.31;;;9.31;75.63
59337;BME280;45115;52.002;4.686;2023-03-26T13:44:55;100605.84;;;9.13;74.55
59337;BME280;45115;52.002;4.686;2023-03-26T13:47:26;100591.16;;;9.14;73.31
59337;BME280;45115;52.002;4.686;2023-03-26T13:49:58;100604.69;;;9.06;72.95
59337;BME280;45115;52.002;4.686;2023-03-26T13:52:32;100605.00;;;9.22;75.53
59337;BME280;45115;52.002;4.686;2023-03-26T13:55:18;100612.88;;;9.06;73.05
59337;BME280;45115;52.002;4.686;2023-03-26T13:57:54;100595.44;;;8.78;72.09
59337;BME280;45115;52.002;4.686;2023-03-26T14:00:26;100616.59;;;8.95;72.69
59337;BME280;45115;52.002;4.686;2023-03-26T14:03:00;100616.69;;;8.74;74.27
59337;BME280;45115;52.002;4.686;2023-03-26T14:05:34;100613.72;;;8.96;73.54
59337;BME280;45115;52.002;4.686;2023-03-26T14:08:10;100642.25;;;9.23;70.39
59337;BME280;45115;52.002;4.686;2023-03-26T14:10:44;100626.53;;;9.06;71.71
59337;BME280;45115;52.002;4.686;2023-03-26T14:13:18;100635.63;;;9.16;71.98
59337;BME280;45115;52.002;4.686;2023-03-26T14:15:51;100625.69;;;9.15;71.49